ADDS METAR Data INFO
IDs: Format: Raw Decoded Include TAF

Data at: 0151 UTC 22 Jan 2018

METAR for:KPKB (Parkersburg/Wood Cnt, WV, US)
Text:KPKB 220053Z 00000KT 10SM OVC038 13/07 A3011 RMK AO2 SLP196 T01330072
Temperature: 13.3°C ( 56°F)
Dewpoint: 7.2°C ( 45°F) [RH = 66%]
Pressure (altimeter):30.11 inches Hg (1019.7 mb) [Sea level pressure: 1019.6 mb]
Winds:calm
Visibility:10 or more sm (16+ km)
Ceiling:3800 feet AGL
Clouds: overcast cloud deck at 3800 feet AGL
Text:KPKB 212353Z 21004KT 10SM OVC035 13/07 A3011 RMK AO2 SLP198 T01330072 10144 20122 53003
Temperature: 13.3°C ( 56°F)
Dewpoint: 7.2°C ( 45°F) [RH = 66%]
Pressure (altimeter):30.11 inches Hg (1019.7 mb) [Sea level pressure: 1019.8 mb]
Winds:from the SSW (210 degrees) at 5 MPH (4 knots; 2.1 m/s)
Visibility:10 or more sm (16+ km)
Ceiling:3500 feet AGL
Clouds: overcast cloud deck at 3500 feet AGL
Text:KPKB 212253Z 20004KT 10SM BKN035 BKN043 OVC060 13/07 A3010 RMK AO2 SLP195 T01330067
Temperature: 13.3°C ( 56°F)
Dewpoint: 6.7°C ( 44°F) [RH = 64%]
Pressure (altimeter):30.10 inches Hg (1019.4 mb) [Sea level pressure: 1019.5 mb]
Winds:from the SSW (200 degrees) at 5 MPH (4 knots; 2.1 m/s)
Visibility:10 or more sm (16+ km)
Ceiling:3500 feet AGL
Clouds: broken clouds at 3500 feet AGL, broken clouds at 4300 feet AGL, overcast cloud deck at 6000 feet AGL
Text:KPKB 212153Z 18005KT 10SM BKN031 OVC050 14/07 A3010 RMK AO2 SLP194 T01390072
Temperature: 13.9°C ( 57°F)
Dewpoint: 7.2°C ( 45°F) [RH = 64%]
Pressure (altimeter):30.10 inches Hg (1019.4 mb) [Sea level pressure: 1019.4 mb]
Winds:from the S (180 degrees) at 6 MPH (5 knots; 2.6 m/s)
Visibility:10 or more sm (16+ km)
Ceiling:3100 feet AGL
Clouds: broken clouds at 3100 feet AGL, overcast cloud deck at 5000 feet AGL
Text:KPKB 212148Z 18005KT 10SM BKN029 BKN050 OVC065 14/07 A3010 RMK AO2
Temperature: 14.0°C ( 57°F)
Dewpoint: 7.0°C ( 45°F) [RH = 63%]
Pressure (altimeter):30.10 inches Hg (1019.4 mb)
Winds:from the S (180 degrees) at 6 MPH (5 knots; 2.6 m/s)
Visibility:10 or more sm (16+ km)
Ceiling:2900 feet AGL
Clouds: broken clouds at 2900 feet AGL, broken clouds at 5000 feet AGL, overcast cloud deck at 6500 feet AGL
Text:KPKB 212117Z 19005KT 10SM FEW028 SCT070 BKN080 14/07 A3010 RMK AO2 T01390072
Temperature: 13.9°C ( 57°F)
Dewpoint: 7.2°C ( 45°F) [RH = 64%]
Pressure (altimeter):30.10 inches Hg (1019.4 mb)
Winds:from the S (190 degrees) at 6 MPH (5 knots; 2.6 m/s)
Visibility:10 or more sm (16+ km)
Ceiling:8000 feet AGL
Clouds: few clouds at 2800 feet AGL, scattered clouds at 7000 feet AGL, broken clouds at 8000 feet AGL
Text:KPKB 212053Z 19003KT 10SM BKN027 OVC080 14/07 A3010 RMK AO2 SLP195 T01390072 56004
Temperature: 13.9°C ( 57°F)
Dewpoint: 7.2°C ( 45°F) [RH = 64%]
Pressure (altimeter):30.10 inches Hg (1019.4 mb) [Sea level pressure: 1019.5 mb]
Winds:from the S (190 degrees) at 3 MPH (3 knots; 1.5 m/s)
Visibility:10 or more sm (16+ km)
Ceiling:2700 feet AGL
Clouds: broken clouds at 2700 feet AGL, overcast cloud deck at 8000 feet AGL
Text:KPKB 212051Z 20005KT 10SM OVC025 14/07 A3010 RMK AO2
Temperature: 14.0°C ( 57°F)
Dewpoint: 7.0°C ( 45°F) [RH = 63%]
Pressure (altimeter):30.10 inches Hg (1019.4 mb)
Winds:from the SSW (200 degrees) at 6 MPH (5 knots; 2.6 m/s)
Visibility:10 or more sm (16+ km)
Ceiling:2500 feet AGL
Clouds: overcast cloud deck at 2500 feet AGL
Text:KPKB 211953Z 22007KT 10SM SCT025 BKN039 OVC055 13/06 A3011 RMK AO2 SLP197 T01330061
Temperature: 13.3°C ( 56°F)
Dewpoint: 6.1°C ( 43°F) [RH = 62%]
Pressure (altimeter):30.11 inches Hg (1019.7 mb) [Sea level pressure: 1019.7 mb]
Winds:from the SW (220 degrees) at 8 MPH (7 knots; 3.6 m/s)
Visibility:10 or more sm (16+ km)
Ceiling:3900 feet AGL
Clouds: scattered clouds at 2500 feet AGL, broken clouds at 3900 feet AGL, overcast cloud deck at 5500 feet AGL
Text:KPKB 211944Z 21004KT 10SM SCT023 BKN040 BKN055 13/07 A3011 RMK AO2 T01330067
Temperature: 13.3°C ( 56°F)
Dewpoint: 6.7°C ( 44°F) [RH = 64%]
Pressure (altimeter):30.11 inches Hg (1019.7 mb)
Winds:from the SSW (210 degrees) at 5 MPH (4 knots; 2.1 m/s)
Visibility:10 or more sm (16+ km)
Ceiling:4000 feet AGL
Clouds: scattered clouds at 2300 feet AGL, broken clouds at 4000 feet AGL, broken clouds at 5500 feet AGL
Text:KPKB 211853Z 23009KT 10SM OVC023 13/06 A3012 RMK AO2 SLP199 T01330056
Temperature: 13.3°C ( 56°F)
Dewpoint: 5.6°C ( 42°F) [RH = 60%]
Pressure (altimeter):30.12 inches Hg (1020.1 mb) [Sea level pressure: 1019.9 mb]
Winds:from the SW (230 degrees) at 10 MPH (9 knots; 4.6 m/s)
Visibility:10 or more sm (16+ km)
Ceiling:2300 feet AGL
Clouds: overcast cloud deck at 2300 feet AGL
Text:KPKB 211753Z 20008KT 10SM BKN023 BKN075 12/05 A3014 RMK AO2 SLP206 T01220050 10122 20056 58015
Temperature: 12.2°C ( 54°F)
Dewpoint: 5.0°C ( 41°F) [RH = 61%]
Pressure (altimeter):30.14 inches Hg (1020.7 mb) [Sea level pressure: 1020.6 mb]
Winds:from the SSW (200 degrees) at 9 MPH (8 knots; 4.1 m/s)
Visibility:10 or more sm (16+ km)
Ceiling:2300 feet AGL
Clouds: broken clouds at 2300 feet AGL, broken clouds at 7500 feet AGL
Text:KPKB 211653Z 19008KT 10SM FEW026 FEW035 OVC075 11/05 A3016 RMK AO2 SLP215 T01060050
Temperature: 10.6°C ( 51°F)
Dewpoint: 5.0°C ( 41°F) [RH = 68%]
Pressure (altimeter):30.16 inches Hg (1021.4 mb) [Sea level pressure: 1021.5 mb]
Winds:from the S (190 degrees) at 9 MPH (8 knots; 4.1 m/s)
Visibility:10 or more sm (16+ km)
Ceiling:7500 feet AGL
Clouds: few clouds at 2600 feet AGL, few clouds at 3500 feet AGL, overcast cloud deck at 7500 feet AGL
Text:KPKB 211553Z 20008KT 10SM OVC075 10/05 A3018 RMK AO2 SLP223 T01000050
Temperature: 10.0°C ( 50°F)
Dewpoint: 5.0°C ( 41°F) [RH = 71%]
Pressure (altimeter):30.18 inches Hg (1022.1 mb) [Sea level pressure: 1022.3 mb]
Winds:from the SSW (200 degrees) at 9 MPH (8 knots; 4.1 m/s)
Visibility:10 or more sm (16+ km)
Ceiling:7500 feet AGL
Clouds: overcast cloud deck at 7500 feet AGL
Text:KPKB 211453Z 20007KT 10SM SCT032 BKN055 OVC070 09/04 A3018 RMK AO2 SLP224 T00890039 53003
Temperature: 8.9°C ( 48°F)
Dewpoint: 3.9°C ( 39°F) [RH = 71%]
Pressure (altimeter):30.18 inches Hg (1022.1 mb) [Sea level pressure: 1022.4 mb]
Winds:from the SSW (200 degrees) at 8 MPH (7 knots; 3.6 m/s)
Visibility:10 or more sm (16+ km)
Ceiling:5500 feet AGL
Clouds: scattered clouds at 3200 feet AGL, broken clouds at 5500 feet AGL, overcast cloud deck at 7000 feet AGL
Text:KPKB 211353Z 19005KT 10SM FEW041 OVC060 07/04 A3018 RMK AO2 SLP222 T00720039
Temperature: 7.2°C ( 45°F)
Dewpoint: 3.9°C ( 39°F) [RH = 80%]
Pressure (altimeter):30.18 inches Hg (1022.1 mb) [Sea level pressure: 1022.2 mb]
Winds:from the S (190 degrees) at 6 MPH (5 knots; 2.6 m/s)
Visibility:10 or more sm (16+ km)
Ceiling:6000 feet AGL
Clouds: few clouds at 4100 feet AGL, overcast cloud deck at 6000 feet AGL
Text:KPKB 211258Z 18005KT 10SM FEW037 OVC065 07/04 A3017 RMK AO2 T00670044
Temperature: 6.7°C ( 44°F)
Dewpoint: 4.4°C ( 40°F) [RH = 85%]
Pressure (altimeter):30.17 inches Hg (1021.8 mb)
Winds:from the S (180 degrees) at 6 MPH (5 knots; 2.6 m/s)
Visibility:10 or more sm (16+ km)
Ceiling:6500 feet AGL
Clouds: few clouds at 3700 feet AGL, overcast cloud deck at 6500 feet AGL
Text:KPKB 211253Z COR 18004KT 10SM FEW037 OVC065 06/04 A3017 RMK AO2 SLP220 T00610039
Temperature: 6.1°C ( 43°F)
Dewpoint: 3.9°C ( 39°F) [RH = 86%]
Pressure (altimeter):30.17 inches Hg (1021.8 mb) [Sea level pressure: 1022.0 mb]
Winds:from the S (180 degrees) at 5 MPH (4 knots; 2.1 m/s)
Visibility:10 or more sm (16+ km)
Ceiling:6500 feet AGL
Clouds: few clouds at 3700 feet AGL, overcast cloud deck at 6500 feet AGL
Text:KPKB 211153Z 17004KT 9SM SCT022 BKN027 OVC065 06/04 A3018 RMK AO2 SLP221 60000 T00560044 10072 20039 51004
Temperature: 5.6°C ( 42°F)
Dewpoint: 4.4°C ( 40°F) [RH = 92%]
Pressure (altimeter):30.18 inches Hg (1022.1 mb) [Sea level pressure: 1022.1 mb]
Winds:from the S (170 degrees) at 5 MPH (4 knots; 2.1 m/s)
Visibility: 9 sm ( 14 km)
Ceiling:2700 feet AGL
Clouds: scattered clouds at 2200 feet AGL, broken clouds at 2700 feet AGL, overcast cloud deck at 6500 feet AGL
Text:KPKB 211142Z AUTO 00000KT 9SM BKN022 BKN030 OVC065 06/04 A3017 RMK AO2 T00560044
Temperature: 5.6°C ( 42°F)
Dewpoint: 4.4°C ( 40°F) [RH = 92%]
Pressure (altimeter):30.17 inches Hg (1021.8 mb)
Winds:calm
Visibility: 9 sm ( 14 km)
Ceiling:2200 feet AGL
Clouds: broken clouds at 2200 feet AGL, broken clouds at 3000 feet AGL, overcast cloud deck at 6500 feet AGL
QC Flag:automated observation with no human augmentation
Text:KPKB 211100Z AUTO 15003KT 10SM OVC033 06/05 A3017 RMK AO2 T00610050
Temperature: 6.1°C ( 43°F)
Dewpoint: 5.0°C ( 41°F) [RH = 93%]
Pressure (altimeter):30.17 inches Hg (1021.8 mb)
Winds:from the SSE (150 degrees) at 3 MPH (3 knots; 1.5 m/s)
Visibility:10 or more sm (16+ km)
Ceiling:3300 feet AGL
Clouds: overcast cloud deck at 3300 feet AGL
QC Flag:automated observation with no human augmentation
Text:KPKB 211053Z AUTO 16004KT 10SM BKN029 OVC034 06/05 A3017 RMK AO2 RAE06 SLP218 P0000 T00560050
Temperature: 5.6°C ( 42°F)
Dewpoint: 5.0°C ( 41°F) [RH = 96%]
Pressure (altimeter):30.17 inches Hg (1021.8 mb) [Sea level pressure: 1021.8 mb]
Winds:from the SSE (160 degrees) at 5 MPH (4 knots; 2.1 m/s)
Visibility:10 or more sm (16+ km)
Ceiling:2900 feet AGL
Clouds: broken clouds at 2900 feet AGL, overcast cloud deck at 3400 feet AGL
QC Flag:automated observation with no human augmentation
Text:KPKB 211031Z AUTO 16003KT 6SM BR BKN029 OVC036 05/04 A3017 RMK AO2 RAE06 P0000 T00500039
Temperature: 5.0°C ( 41°F)
Dewpoint: 3.9°C ( 39°F) [RH = 93%]
Pressure (altimeter):30.17 inches Hg (1021.8 mb)
Winds:from the SSE (160 degrees) at 3 MPH (3 knots; 1.5 m/s)
Visibility: 6 sm ( 10 km)
Ceiling:2900 feet AGL
Clouds: broken clouds at 2900 feet AGL, overcast cloud deck at 3600 feet AGL
Weather:BR (mist)
QC Flag:automated observation with no human augmentation
Text:KPKB 210953Z AUTO 00000KT 4SM -RA BR SCT025 BKN032 OVC050 04/03 A3018 RMK AO2 RAB48 SLP222 P0000 T00440033
Temperature: 4.4°C ( 40°F)
Dewpoint: 3.3°C ( 38°F) [RH = 93%]
Pressure (altimeter):30.18 inches Hg (1022.1 mb) [Sea level pressure: 1022.2 mb]
Winds:calm
Visibility: 4 sm ( 6 km)
Ceiling:3200 feet AGL
Clouds: scattered clouds at 2500 feet AGL, broken clouds at 3200 feet AGL, overcast cloud deck at 5000 feet AGL
Weather:-RA BR (light rain, mist)
QC Flag:automated observation with no human augmentation
Text:KPKB 210853Z AUTO 00000KT 10SM BKN035 OVC050 05/04 A3016 RMK AO2 RAB39E48 SLP217 P0000 60000 T00500044 58002
Temperature: 5.0°C ( 41°F)
Dewpoint: 4.4°C ( 40°F) [RH = 96%]
Pressure (altimeter):30.16 inches Hg (1021.4 mb) [Sea level pressure: 1021.7 mb]
Winds:calm
Visibility:10 or more sm (16+ km)
Ceiling:3500 feet AGL
Clouds: broken clouds at 3500 feet AGL, overcast cloud deck at 5000 feet AGL
QC Flag:automated observation with no human augmentation
Text:KPKB 210753Z AUTO 00000KT 10SM OVC032 07/05 A3017 RMK AO2 RAE0657B19E43 SLP220 P0000 T00670050
Temperature: 6.7°C ( 44°F)
Dewpoint: 5.0°C ( 41°F) [RH = 89%]
Pressure (altimeter):30.17 inches Hg (1021.8 mb) [Sea level pressure: 1022.0 mb]
Winds:calm
Visibility:10 or more sm (16+ km)
Ceiling:3200 feet AGL
Clouds: overcast cloud deck at 3200 feet AGL
QC Flag:automated observation with no human augmentation
Text:KPKB 210739Z AUTO 00000KT 10SM -RA BKN032 OVC042 07/05 A3017 RMK AO2 RAE0657B19 P0000 T00670050
Temperature: 6.7°C ( 44°F)
Dewpoint: 5.0°C ( 41°F) [RH = 89%]
Pressure (altimeter):30.17 inches Hg (1021.8 mb)
Winds:calm
Visibility:10 or more sm (16+ km)
Ceiling:3200 feet AGL
Clouds: broken clouds at 3200 feet AGL, overcast cloud deck at 4200 feet AGL
Weather:-RA (light rain)
QC Flag:automated observation with no human augmentation
Text:KPKB 210653Z AUTO 19004KT 7SM -RA SCT012 BKN024 OVC033 07/04 A3016 RMK AO2 RAB38 SLP217 P0000 T00720044
Temperature: 7.2°C ( 45°F)
Dewpoint: 4.4°C ( 40°F) [RH = 82%]
Pressure (altimeter):30.16 inches Hg (1021.4 mb) [Sea level pressure: 1021.7 mb]
Winds:from the S (190 degrees) at 5 MPH (4 knots; 2.1 m/s)
Visibility: 7 sm ( 11 km)
Ceiling:2400 feet AGL
Clouds: scattered clouds at 1200 feet AGL, broken clouds at 2400 feet AGL, overcast cloud deck at 3300 feet AGL
Weather:-RA (light rain)
QC Flag:automated observation with no human augmentation
Text:KPKB 210624Z AUTO 18005KT 10SM SCT020 BKN037 OVC050 07/04 A3016 RMK AO2 T00720039
Temperature: 7.2°C ( 45°F)
Dewpoint: 3.9°C ( 39°F) [RH = 80%]
Pressure (altimeter):30.16 inches Hg (1021.4 mb)
Winds:from the S (180 degrees) at 6 MPH (5 knots; 2.6 m/s)
Visibility:10 or more sm (16+ km)
Ceiling:3700 feet AGL
Clouds: scattered clouds at 2000 feet AGL, broken clouds at 3700 feet AGL, overcast cloud deck at 5000 feet AGL
QC Flag:automated observation with no human augmentation
Text:KPKB 210553Z AUTO 17004KT 10SM OVC018 06/03 A3017 RMK AO2 RAB0459E32 SLP220 P0000 60000 T00610033 10083 20061 50001
Temperature: 6.1°C ( 43°F)
Dewpoint: 3.3°C ( 38°F) [RH = 82%]
Pressure (altimeter):30.17 inches Hg (1021.8 mb) [Sea level pressure: 1022.0 mb]
Winds:from the S (170 degrees) at 5 MPH (4 knots; 2.1 m/s)
Visibility:10 or more sm (16+ km)
Ceiling:1800 feet AGL
Clouds: overcast cloud deck at 1800 feet AGL
QC Flag:automated observation with no human augmentation
Text:KPKB 210453Z AUTO 21003KT 10SM OVC020 08/02 A3018 RMK AO2 SLP222 T00830022 401000022
Temperature: 8.3°C ( 47°F)
Dewpoint: 2.2°C ( 36°F) [RH = 65%]
Pressure (altimeter):30.18 inches Hg (1022.1 mb) [Sea level pressure: 1022.2 mb]
Winds:from the SSW (210 degrees) at 3 MPH (3 knots; 1.5 m/s)
Visibility:10 or more sm (16+ km)
Ceiling:2000 feet AGL
Clouds: overcast cloud deck at 2000 feet AGL
QC Flag:automated observation with no human augmentation
Text:KPKB 210353Z 21006KT 10SM OVC022 08/02 A3017 RMK AO2 SLP220 T00780022
Temperature: 7.8°C ( 46°F)
Dewpoint: 2.2°C ( 36°F) [RH = 68%]
Pressure (altimeter):30.17 inches Hg (1021.8 mb) [Sea level pressure: 1022.0 mb]
Winds:from the SSW (210 degrees) at 7 MPH (6 knots; 3.1 m/s)
Visibility:10 or more sm (16+ km)
Ceiling:2200 feet AGL
Clouds: overcast cloud deck at 2200 feet AGL
Text:KPKB 210341Z 22004KT 10SM BKN022 OVC046 08/02 A3017 RMK AO2 T00830017
Temperature: 8.3°C ( 47°F)
Dewpoint: 1.7°C ( 35°F) [RH = 63%]
Pressure (altimeter):30.17 inches Hg (1021.8 mb)
Winds:from the SW (220 degrees) at 5 MPH (4 knots; 2.1 m/s)
Visibility:10 or more sm (16+ km)
Ceiling:2200 feet AGL
Clouds: broken clouds at 2200 feet AGL, overcast cloud deck at 4600 feet AGL
Text:KPKB 210253Z 21006KT 10SM OVC046 08/01 A3017 RMK AO2 SLP218 T00780011 51008
Temperature: 7.8°C ( 46°F)
Dewpoint: 1.1°C ( 34°F) [RH = 63%]
Pressure (altimeter):30.17 inches Hg (1021.8 mb) [Sea level pressure: 1021.8 mb]
Winds:from the SSW (210 degrees) at 7 MPH (6 knots; 3.1 m/s)
Visibility:10 or more sm (16+ km)
Ceiling:4600 feet AGL
Clouds: overcast cloud deck at 4600 feet AGL
Text:KPKB 210158Z 20006KT 10SM SCT028 OVC038 07/01 A3016 RMK AO2 T00720011
Temperature: 7.2°C ( 45°F)
Dewpoint: 1.1°C ( 34°F) [RH = 65%]
Pressure (altimeter):30.16 inches Hg (1021.4 mb)
Winds:from the SSW (200 degrees) at 7 MPH (6 knots; 3.1 m/s)
Visibility:10 or more sm (16+ km)
Ceiling:3800 feet AGL
Clouds: scattered clouds at 2800 feet AGL, overcast cloud deck at 3800 feet AGL
Text:KPKB 210153Z 21007KT 10SM BKN028 OVC036 08/01 A3016 RMK AO2 SLP217 T00780011
Temperature: 7.8°C ( 46°F)
Dewpoint: 1.1°C ( 34°F) [RH = 63%]
Pressure (altimeter):30.16 inches Hg (1021.4 mb) [Sea level pressure: 1021.7 mb]
Winds:from the SSW (210 degrees) at 8 MPH (7 knots; 3.6 m/s)
Visibility:10 or more sm (16+ km)
Ceiling:2800 feet AGL
Clouds: broken clouds at 2800 feet AGL, overcast cloud deck at 3600 feet AGL